sensor_id;sensor_type;location;lat;lon;timestamp;pressure;altitude;pressure_sealevel;temperature;humidity
33913;BME280;20200;52.084;5.224;2022-08-19T00:01:22;101259.0;;;18.95;91.45
33913;BME280;20200;52.084;5.224;2022-08-19T00:02:59;101256.0;;;18.93;91.62
33913;BME280;20200;52.084;5.224;2022-08-19T00:04:36;101257.0;;;19.07;90.8
33913;BME280;20200;52.084;5.224;2022-08-19T00:07:50;101251.0;;;19.09;90.72
33913;BME280;20200;52.084;5.224;2022-08-19T00:09:27;101247.0;;;18.93;91.3
33913;BME280;20200;52.084;5.224;2022-08-19T00:11:04;101255.0;;;18.86;91.16
33913;BME280;20200;52.084;5.224;2022-08-19T00:12:41;101256.0;;;18.77;91.01
33913;BME280;20200;52.084;5.224;2022-08-19T00:15:55;101261.0;;;18.79;91.04
33913;BME280;20200;52.084;5.224;2022-08-19T00:17:31;101265.0;;;18.77;91.38
33913;BME280;20200;52.084;5.224;2022-08-19T00:19:08;101267.0;;;18.68;91.96
33913;BME280;20200;52.084;5.224;2022-08-19T00:22:21;101266.0;;;18.68;92.31
33913;BME280;20200;52.084;5.224;2022-08-19T00:23:58;101269.0;;;18.61;92.94
33913;BME280;20200;52.084;5.224;2022-08-19T00:25:36;101266.0;;;18.63;92.89
33913;BME280;20200;52.084;5.224;2022-08-19T00:27:12;101262.0;;;18.63;93.12
33913;BME280;20200;52.084;5.224;2022-08-19T00:30:28;101264.0;;;18.64;92.7
33913;BME280;20200;52.084;5.224;2022-08-19T00:32:04;101264.0;;;18.56;93.24
33913;BME280;20200;52.084;5.224;2022-08-19T00:36:55;101262.0;;;18.5;93.68
33913;BME280;20200;52.084;5.224;2022-08-19T00:38:32;101263.0;;;18.5;93.78
33913;BME280;20200;52.084;5.224;2022-08-19T00:40:11;101255.0;;;18.52;93.61
33913;BME280;20200;52.084;5.224;2022-08-19T00:43:27;101258.0;;;18.47;93.73
33913;BME280;20200;52.084;5.224;2022-08-19T00:45:09;101255.0;;;18.46;93.47
33913;BME280;20200;52.084;5.224;2022-08-19T00:46:49;101253.0;;;18.45;93.22
33913;BME280;20200;52.084;5.224;2022-08-19T00:48:26;101257.0;;;18.5;92.91
33913;BME280;20200;52.084;5.224;2022-08-19T00:51:42;101258.0;;;18.5;93.08
33913;BME280;20200;52.084;5.224;2022-08-19T00:53:24;101261.0;;;18.53;92.85
33913;BME280;20200;52.084;5.224;2022-08-19T00:55:05;101265.0;;;18.46;92.95
33913;BME280;20200;52.084;5.224;2022-08-19T00:56:45;101264.0;;;18.36;93.13
33913;BME280;20200;52.084;5.224;2022-08-19T01:00:09;101263.0;;;18.34;93.03
33913;BME280;20200;52.084;5.224;2022-08-19T01:01:46;101264.0;;;18.27;93.28
33913;BME280;20200;52.084;5.224;2022-08-19T01:05:02;101266.0;;;18.14;93.3
33913;BME280;20200;52.084;5.224;2022-08-19T01:08:18;101260.0;;;18.21;93.12
33913;BME280;20200;52.084;5.224;2022-08-19T01:09:55;101256.0;;;18.18;93.14
33913;BME280;20200;52.084;5.224;2022-08-19T01:11:36;101263.0;;;18.07;93.35
33913;BME280;20200;52.084;5.224;2022-08-19T01:13:20;101263.0;;;18.11;93.23
33913;BME280;20200;52.084;5.224;2022-08-19T01:16:36;101258.0;;;18.02;93.84
33913;BME280;20200;52.084;5.224;2022-08-19T01:18:17;101257.0;;;18.11;94.02
33913;BME280;20200;52.084;5.224;2022-08-19T01:19:54;101259.0;;;18.09;93.78
33913;BME280;20200;52.084;5.224;2022-08-19T01:23:20;101255.0;;;18.22;93.22
33913;BME280;20200;52.084;5.224;2022-08-19T01:24:56;101252.0;;;18.16;93.82
33913;BME280;20200;52.084;5.224;2022-08-19T01:26:38;101251.0;;;18.22;93.27
33913;BME280;20200;52.084;5.224;2022-08-19T01:28:18;101248.0;;;18.16;93.62
33913;BME280;20200;52.084;5.224;2022-08-19T01:31:31;101256.0;;;18.06;93.63
33913;BME280;20200;52.084;5.224;2022-08-19T01:33:07;101261.0;;;18.02;93.76
33913;BME280;20200;52.084;5.224;2022-08-19T01:34:46;101264.0;;;17.91;94.02
33913;BME280;20200;52.084;5.224;2022-08-19T01:36:24;101265.0;;;17.86;94.46
33913;BME280;20200;52.084;5.224;2022-08-19T01:39:46;101269.0;;;17.98;93.55
33913;BME280;20200;52.084;5.224;2022-08-19T01:41:23;101275.0;;;18.0;93.72
33913;BME280;20200;52.084;5.224;2022-08-19T01:43:00;101276.0;;;17.93;94.11
33913;BME280;20200;52.084;5.224;2022-08-19T01:44:38;101278.0;;;17.88;94.59
33913;BME280;20200;52.084;5.224;2022-08-19T01:47:53;101275.0;;;17.78;94.89
33913;BME280;20200;52.084;5.224;2022-08-19T01:49:29;101275.0;;;17.71;95.13
33913;BME280;20200;52.084;5.224;2022-08-19T01:51:06;101278.0;;;17.62;94.97
33913;BME280;20200;52.084;5.224;2022-08-19T01:54:24;101270.0;;;17.79;94.49
33913;BME280;20200;52.084;5.224;2022-08-19T01:56:00;101273.0;;;17.77;94.68
33913;BME280;20200;52.084;5.224;2022-08-19T01:57:40;101277.0;;;17.86;94.79
33913;BME280;20200;52.084;5.224;2022-08-19T01:59:22;101278.0;;;17.95;94.24
33913;BME280;20200;52.084;5.224;2022-08-19T02:02:36;101278.0;;;17.89;94.38
33913;BME280;20200;52.084;5.224;2022-08-19T02:04:12;101274.0;;;17.97;94.13
33913;BME280;20200;52.084;5.224;2022-08-19T02:05:54;101275.0;;;17.98;94.05
33913;BME280;20200;52.084;5.224;2022-08-19T02:09:08;101274.0;;;17.95;94.04
33913;BME280;20200;52.084;5.224;2022-08-19T02:10:46;101278.0;;;17.89;94.63
33913;BME280;20200;52.084;5.224;2022-08-19T02:12:22;101275.0;;;17.86;94.57
33913;BME280;20200;52.084;5.224;2022-08-19T02:13:59;101274.0;;;17.96;94.67
33913;BME280;20200;52.084;5.224;2022-08-19T02:17:13;101280.0;;;17.98;94.39
33913;BME280;20200;52.084;5.224;2022-08-19T02:18:50;101273.0;;;18.03;93.81
33913;BME280;20200;52.084;5.224;2022-08-19T02:20:26;101271.0;;;18.05;93.61
33913;BME280;20200;52.084;5.224;2022-08-19T02:23:40;101272.0;;;18.09;93.35
33913;BME280;20200;52.084;5.224;2022-08-19T02:25:16;101271.0;;;18.09;93.09
33913;BME280;20200;52.084;5.224;2022-08-19T02:26:53;101270.0;;;18.11;93.01
33913;BME280;20200;52.084;5.224;2022-08-19T02:30:08;101266.0;;;18.02;93.35
33913;BME280;20200;52.084;5.224;2022-08-19T02:31:47;101270.0;;;17.96;93.59
33913;BME280;20200;52.084;5.224;2022-08-19T02:33:23;101275.0;;;18.0;93.42
33913;BME280;20200;52.084;5.224;2022-08-19T02:35:00;101280.0;;;18.02;93.22
33913;BME280;20200;52.084;5.224;2022-08-19T02:38:29;101274.0;;;17.95;93.84
33913;BME280;20200;52.084;5.224;2022-08-19T02:40:07;101283.0;;;17.89;93.82
33913;BME280;20200;52.084;5.224;2022-08-19T02:41:44;101281.0;;;17.75;94.09
33913;BME280;20200;52.084;5.224;2022-08-19T02:43:21;101286.0;;;17.77;93.79
33913;BME280;20200;52.084;5.224;2022-08-19T02:46:34;101290.0;;;17.62;94.63
33913;BME280;20200;52.084;5.224;2022-08-19T02:48:11;101291.0;;;17.68;94.56
33913;BME280;20200;52.084;5.224;2022-08-19T02:49:49;101285.0;;;17.77;93.89
33913;BME280;20200;52.084;5.224;2022-08-19T02:53:08;101281.0;;;17.71;94.37
33913;BME280;20200;52.084;5.224;2022-08-19T02:54:46;101277.0;;;17.68;94.51
33913;BME280;20200;52.084;5.224;2022-08-19T02:56:22;101268.0;;;17.66;94.65
33913;BME280;20200;52.084;5.224;2022-08-19T02:58:00;101272.0;;;17.59;94.7
33913;BME280;20200;52.084;5.224;2022-08-19T03:01:20;101266.0;;;17.53;95.1
33913;BME280;20200;52.084;5.224;2022-08-19T03:02:57;101273.0;;;17.54;94.72
33913;BME280;20200;52.084;5.224;2022-08-19T03:04:33;101275.0;;;17.57;94.48
33913;BME280;20200;52.084;5.224;2022-08-19T03:07:49;101278.0;;;17.57;94.13
33913;BME280;20200;52.084;5.224;2022-08-19T03:09:26;101277.0;;;17.53;94.98
33913;BME280;20200;52.084;5.224;2022-08-19T03:11:03;101270.0;;;17.47;95.83
33913;BME280;20200;52.084;5.224;2022-08-19T03:12:40;101267.0;;;17.47;95.35
33913;BME280;20200;52.084;5.224;2022-08-19T03:15:54;101267.0;;;17.39;95.95
33913;BME280;20200;52.084;5.224;2022-08-19T03:17:30;101263.0;;;17.61;94.72
33913;BME280;20200;52.084;5.224;2022-08-19T03:19:06;101265.0;;;17.5;95.39
33913;BME280;20200;52.084;5.224;2022-08-19T03:22:21;101265.0;;;17.45;95.7
33913;BME280;20200;52.084;5.224;2022-08-19T03:24:04;101261.0;;;17.34;95.83
33913;BME280;20200;52.084;5.224;2022-08-19T03:25:46;101263.0;;;17.41;95.46
33913;BME280;20200;52.084;5.224;2022-08-19T03:27:24;101263.0;;;17.63;94.33
33913;BME280;20200;52.084;5.224;2022-08-19T03:30:41;101266.0;;;17.36;94.95
33913;BME280;20200;52.084;5.224;2022-08-19T03:32:19;101263.0;;;17.34;95.37
33913;BME280;20200;52.084;5.224;2022-08-19T03:33:55;101264.0;;;17.27;95.84
33913;BME280;20200;52.084;5.224;2022-08-19T03:35:31;101262.0;;;17.34;95.15
33913;BME280;20200;52.084;5.224;2022-08-19T03:38:50;101262.0;;;17.18;95.58
33913;BME280;20200;52.084;5.224;2022-08-19T03:40:30;101260.0;;;17.2;95.17
33913;BME280;20200;52.084;5.224;2022-08-19T03:42:07;101258.0;;;17.27;94.47
33913;BME280;20200;52.084;5.224;2022-08-19T03:45:23;101261.0;;;17.27;94.43
33913;BME280;20200;52.084;5.224;2022-08-19T03:47:00;101266.0;;;17.13;95.34
33913;BME280;20200;52.084;5.224;2022-08-19T03:48:37;101262.0;;;17.27;94.74
33913;BME280;20200;52.084;5.224;2022-08-19T03:50:15;101262.0;;;17.23;94.85
33913;BME280;20200;52.084;5.224;2022-08-19T03:53:31;101262.0;;;17.09;96.29
33913;BME280;20200;52.084;5.224;2022-08-19T03:55:08;101260.0;;;17.18;95.87
33913;BME280;20200;52.084;5.224;2022-08-19T03:56:47;101261.0;;;17.11;95.81
33913;BME280;20200;52.084;5.224;2022-08-19T04:00:05;101253.0;;;17.0;96.74
33913;BME280;20200;52.084;5.224;2022-08-19T04:01:42;101252.0;;;17.18;95.61
33913;BME280;20200;52.084;5.224;2022-08-19T04:03:19;101259.0;;;17.18;95.35
33913;BME280;20200;52.084;5.224;2022-08-19T04:04:55;101262.0;;;17.23;94.92
33913;BME280;20200;52.084;5.224;2022-08-19T04:08:11;101267.0;;;17.06;96.11
33913;BME280;20200;52.084;5.224;2022-08-19T04:09:47;101269.0;;;17.21;95.57
33913;BME280;20200;52.084;5.224;2022-08-19T04:11:26;101267.0;;;17.03;96.26
33913;BME280;20200;52.084;5.224;2022-08-19T04:14:41;101266.0;;;17.0;96.62
33913;BME280;20200;52.084;5.224;2022-08-19T04:16:18;101261.0;;;17.09;96.49
33913;BME280;20200;52.084;5.224;2022-08-19T04:17:56;101260.0;;;17.25;95.91
33913;BME280;20200;52.084;5.224;2022-08-19T04:22:53;101259.0;;;16.97;96.7
33913;BME280;20200;52.084;5.224;2022-08-19T04:24:29;101261.0;;;16.95;97.04
33913;BME280;20200;52.084;5.224;2022-08-19T04:26:06;101263.0;;;16.86;97.35
33913;BME280;20200;52.084;5.224;2022-08-19T04:29:24;101256.0;;;16.91;96.51
33913;BME280;20200;52.084;5.224;2022-08-19T04:31:01;101256.0;;;16.96;96.09
33913;BME280;20200;52.084;5.224;2022-08-19T04:32:37;101251.0;;;16.9;96.23
33913;BME280;20200;52.084;5.224;2022-08-19T04:34:19;101252.0;;;16.77;96.89
33913;BME280;20200;52.084;5.224;2022-08-19T04:37:34;101250.0;;;16.8;97.0
33913;BME280;20200;52.084;5.224;2022-08-19T04:39:14;101248.0;;;16.91;96.42
33913;BME280;20200;52.084;5.224;2022-08-19T04:43:47;101246.0;;;16.93;96.29
33913;BME280;20200;52.084;5.224;2022-08-19T04:45:24;101250.0;;;16.86;96.86
33913;BME280;20200;52.084;5.224;2022-08-19T04:47:00;101240.0;;;16.79;97.08
33913;BME280;20200;52.084;5.224;2022-08-19T04:50:15;101252.0;;;16.95;96.69
33913;BME280;20200;52.084;5.224;2022-08-19T04:51:54;101251.0;;;16.9;97.09
33913;BME280;20200;52.084;5.224;2022-08-19T04:53:31;101255.0;;;16.77;98.59
33913;BME280;20200;52.084;5.224;2022-08-19T04:55:10;101259.0;;;16.82;98.94
33913;BME280;20200;52.084;5.224;2022-08-19T04:58:27;101260.0;;;16.98;97.94
33913;BME280;20200;52.084;5.224;2022-08-19T05:00:06;101267.0;;;17.16;96.96
33913;BME280;20200;52.084;5.224;2022-08-19T05:01:42;101276.0;;;17.16;96.73
33913;BME280;20200;52.084;5.224;2022-08-19T05:04:57;101280.0;;;17.2;96.37
33913;BME280;20200;52.084;5.224;2022-08-19T05:06:35;101277.0;;;17.07;97.29
33913;BME280;20200;52.084;5.224;2022-08-19T05:08:12;101278.0;;;17.03;98.0
33913;BME280;20200;52.084;5.224;2022-08-19T05:09:50;101282.0;;;16.93;98.98
33913;BME280;20200;52.084;5.224;2022-08-19T05:13:09;101281.0;;;16.97;98.53
33913;BME280;20200;52.084;5.224;2022-08-19T05:14:47;101284.0;;;17.03;98.06
33913;BME280;20200;52.084;5.224;2022-08-19T05:16:26;101288.0;;;17.13;97.71
33913;BME280;20200;52.084;5.224;2022-08-19T05:24:30;101288.0;;;17.23;97.21
33913;BME280;20200;52.084;5.224;2022-08-19T05:27:42;101291.0;;;17.12;98.55
33913;BME280;20200;52.084;5.224;2022-08-19T05:29:20;101296.0;;;17.04;99.65
33913;BME280;20200;52.084;5.224;2022-08-19T05:30:57;101296.0;;;17.02;100.0
33913;BME280;20200;52.084;5.224;2022-08-19T05:34:12;101294.0;;;17.04;100.0
33913;BME280;20200;52.084;5.224;2022-08-19T05:35:49;101289.0;;;17.07;100.0
33913;BME280;20200;52.084;5.224;2022-08-19T05:37:27;101289.0;;;17.04;100.0
33913;BME280;20200;52.084;5.224;2022-08-19T05:39:04;101285.0;;;17.05;100.0
33913;BME280;20200;52.084;5.224;2022-08-19T05:42:20;101284.0;;;17.16;100.0
33913;BME280;20200;52.084;5.224;2022-08-19T05:43:57;101284.0;;;17.25;100.0
33913;BME280;20200;52.084;5.224;2022-08-19T05:45:38;101282.0;;;17.34;100.0
33913;BME280;20200;52.084;5.224;2022-08-19T05:47:16;101285.0;;;17.48;100.0
33913;BME280;20200;52.084;5.224;2022-08-19T05:50:30;101288.0;;;17.43;100.0
33913;BME280;20200;52.084;5.224;2022-08-19T05:52:08;101285.0;;;17.43;100.0
33913;BME280;20200;52.084;5.224;2022-08-19T05:53:47;101289.0;;;17.36;100.0
33913;BME280;20200;52.084;5.224;2022-08-19T05:57:00;101290.0;;;17.36;100.0
33913;BME280;20200;52.084;5.224;2022-08-19T05:58:38;101282.0;;;17.41;100.0
33913;BME280;20200;52.084;5.224;2022-08-19T06:00:15;101282.0;;;17.47;100.0
33913;BME280;20200;52.084;5.224;2022-08-19T06:03:32;101282.0;;;17.56;100.0
33913;BME280;20200;52.084;5.224;2022-08-19T06:05:10;101271.0;;;17.68;100.0
33913;BME280;20200;52.084;5.224;2022-08-19T06:06:48;101277.0;;;17.75;100.0
33913;BME280;20200;52.084;5.224;2022-08-19T06:08:24;101284.0;;;17.82;100.0
33913;BME280;20200;52.084;5.224;2022-08-19T06:11:42;101282.0;;;17.89;100.0
33913;BME280;20200;52.084;5.224;2022-08-19T06:13:21;101284.0;;;17.82;100.0
33913;BME280;20200;52.084;5.224;2022-08-19T06:14:58;101282.0;;;17.87;100.0
33913;BME280;20200;52.084;5.224;2022-08-19T06:16:36;101286.0;;;17.95;100.0
33913;BME280;20200;52.084;5.224;2022-08-19T06:19:52;101285.0;;;18.02;100.0
33913;BME280;20200;52.084;5.224;2022-08-19T06:21:29;101293.0;;;18.09;100.0
33913;BME280;20200;52.084;5.224;2022-08-19T06:23:06;101290.0;;;18.13;100.0
33913;BME280;20200;52.084;5.224;2022-08-19T06:26:20;101292.0;;;18.22;100.0
33913;BME280;20200;52.084;5.224;2022-08-19T06:27:57;101291.0;;;18.18;100.0
33913;BME280;20200;52.084;5.224;2022-08-19T06:29:35;101286.0;;;18.27;100.0
33913;BME280;20200;52.084;5.224;2022-08-19T06:32:52;101285.0;;;18.34;100.0
33913;BME280;20200;52.084;5.224;2022-08-19T06:34:32;101285.0;;;18.48;100.0
33913;BME280;20200;52.084;5.224;2022-08-19T06:36:16;101288.0;;;18.45;100.0
33913;BME280;20200;52.084;5.224;2022-08-19T06:37:54;101288.0;;;18.46;100.0
33913;BME280;20200;52.084;5.224;2022-08-19T06:41:14;101288.0;;;18.43;100.0
33913;BME280;20200;52.084;5.224;2022-08-19T06:42:50;101291.0;;;18.52;100.0
33913;BME280;20200;52.084;5.224;2022-08-19T06:44:30;101290.0;;;18.46;100.0
33913;BME280;20200;52.084;5.224;2022-08-19T06:46:12;101292.0;;;18.55;100.0
33913;BME280;20200;52.084;5.224;2022-08-19T06:49:31;101293.0;;;18.64;100.0
33913;BME280;20200;52.084;5.224;2022-08-19T06:51:08;101293.0;;;18.68;100.0
33913;BME280;20200;52.084;5.224;2022-08-19T06:52:44;101286.0;;;18.79;100.0
33913;BME280;20200;52.084;5.224;2022-08-19T06:54:20;101287.0;;;18.71;100.0
33913;BME280;20200;52.084;5.224;2022-08-19T06:57:36;101290.0;;;18.7;100.0
33913;BME280;20200;52.084;5.224;2022-08-19T06:59:15;101290.0;;;18.77;99.59
33913;BME280;20200;52.084;5.224;2022-08-19T07:01:02;101287.0;;;18.91;99.17
33913;BME280;20200;52.084;5.224;2022-08-19T07:02:40;101290.0;;;18.91;99.67
33913;BME280;20200;52.084;5.224;2022-08-19T07:05:57;101292.0;;;18.86;100.0
33913;BME280;20200;52.084;5.224;2022-08-19T07:07:34;101290.0;;;18.86;99.62
33913;BME280;20200;52.084;5.224;2022-08-19T07:09:13;101290.0;;;18.79;99.28
33913;BME280;20200;52.084;5.224;2022-08-19T07:12:31;101291.0;;;18.86;99.1
33913;BME280;20200;52.084;5.224;2022-08-19T07:14:07;101293.0;;;18.95;98.71
33913;BME280;20200;52.084;5.224;2022-08-19T07:15:46;101294.0;;;18.89;98.21
33913;BME280;20200;52.084;5.224;2022-08-19T07:17:22;101297.0;;;18.84;98.84
33913;BME280;20200;52.084;5.224;2022-08-19T07:20:37;101301.0;;;18.93;97.98
33913;BME280;20200;52.084;5.224;2022-08-19T07:22:14;101301.0;;;18.95;97.01
33913;BME280;20200;52.084;5.224;2022-08-19T07:23:52;101308.0;;;19.02;97.19
33913;BME280;20200;52.084;5.224;2022-08-19T07:27:05;101310.0;;;19.11;97.04
33913;BME280;20200;52.084;5.224;2022-08-19T07:28:43;101309.0;;;19.14;97.72
33913;BME280;20200;52.084;5.224;2022-08-19T07:30:23;101309.0;;;19.2;97.45
33913;BME280;20200;52.084;5.224;2022-08-19T07:32:00;101310.0;;;19.22;96.85
33913;BME280;20200;52.084;5.224;2022-08-19T07:35:14;101307.0;;;19.27;95.92
33913;BME280;20200;52.084;5.224;2022-08-19T07:36:51;101309.0;;;19.14;94.94
33913;BME280;20200;52.084;5.224;2022-08-19T07:38:28;101301.0;;;19.09;95.38
33913;BME280;20200;52.084;5.224;2022-08-19T07:41:43;101305.0;;;19.14;95.57
33913;BME280;20200;52.084;5.224;2022-08-19T07:43:25;101298.0;;;19.2;95.35
33913;BME280;20200;52.084;5.224;2022-08-19T07:45:04;101306.0;;;19.28;95.03
33913;BME280;20200;52.084;5.224;2022-08-19T07:46:49;101308.0;;;19.5;94.46
33913;BME280;20200;52.084;5.224;2022-08-19T07:50:08;101311.0;;;19.64;93.39
33913;BME280;20200;52.084;5.224;2022-08-19T07:51:47;101315.0;;;19.63;92.34
33913;BME280;20200;52.084;5.224;2022-08-19T07:53:25;101317.0;;;19.75;91.73
33913;BME280;20200;52.084;5.224;2022-08-19T07:55:05;101321.0;;;19.86;91.35
33913;BME280;20200;52.084;5.224;2022-08-19T07:58:21;101323.0;;;19.77;91.15
33913;BME280;20200;52.084;5.224;2022-08-19T07:59:58;101324.0;;;19.88;91.31
33913;BME280;20200;52.084;5.224;2022-08-19T08:01:35;101320.0;;;20.04;90.88
33913;BME280;20200;52.084;5.224;2022-08-19T08:09:31;101326.0;;;20.16;87.98
33913;BME280;20200;52.084;5.224;2022-08-19T08:11:09;101323.0;;;20.2;88.32
33913;BME280;20200;52.084;5.224;2022-08-19T08:12:46;101328.0;;;20.25;88.22
33913;BME280;20200;52.084;5.224;2022-08-19T08:14:26;101335.0;;;20.43;87.04
33913;BME280;20200;52.084;5.224;2022-08-19T08:16:03;101336.0;;;20.62;85.4
33913;BME280;20200;52.084;5.224;2022-08-19T08:19:18;101338.0;;;20.84;85.31
33913;BME280;20200;52.084;5.224;2022-08-19T08:20:57;101340.0;;;20.9;84.07
33913;BME280;20200;52.084;5.224;2022-08-19T08:23:38;101345.0;;;20.9;84.15
33913;BME280;20200;52.084;5.224;2022-08-19T08:25:16;101348.0;;;20.71;83.76
33913;BME280;20200;52.084;5.224;2022-08-19T08:26:56;101338.0;;;20.74;84.47
33913;BME280;20200;52.084;5.224;2022-08-19T08:28:35;101341.0;;;20.87;84.81
33913;BME280;20200;52.084;5.224;2022-08-19T08:31:54;101343.0;;;20.94;84.95
33913;BME280;20200;52.084;5.224;2022-08-19T08:33:30;101342.0;;;21.03;84.85
33913;BME280;20200;52.084;5.224;2022-08-19T08:35:10;101348.0;;;21.04;83.93
33913;BME280;20200;52.084;5.224;2022-08-19T08:36:48;101346.0;;;21.09;83.14
33913;BME280;20200;52.084;5.224;2022-08-19T08:40:03;101349.0;;;21.03;83.21
33913;BME280;20200;52.084;5.224;2022-08-19T08:41:47;101345.0;;;21.1;82.97
33913;BME280;20200;52.084;5.224;2022-08-19T08:43:35;101344.0;;;21.13;82.65
33913;BME280;20200;52.084;5.224;2022-08-19T08:45:16;101340.0;;;21.16;82.47
33913;BME280;20200;52.084;5.224;2022-08-19T08:48:40;101340.0;;;21.22;83.01
33913;BME280;20200;52.084;5.224;2022-08-19T08:50:24;101339.0;;;21.25;81.73
33913;BME280;20200;52.084;5.224;2022-08-19T08:52:06;101342.0;;;21.09;82.4
33913;BME280;20200;52.084;5.224;2022-08-19T08:53:49;101346.0;;;21.18;81.66
33913;BME280;20200;52.084;5.224;2022-08-19T08:57:17;101344.0;;;21.35;81.67
33913;BME280;20200;52.084;5.224;2022-08-19T08:59:00;101345.0;;;21.45;80.81
33913;BME280;20200;52.084;5.224;2022-08-19T09:00:41;101345.0;;;21.58;79.61
33913;BME280;20200;52.084;5.224;2022-08-19T09:02:20;101344.0;;;21.55;78.99
33913;BME280;20200;52.084;5.224;2022-08-19T09:03:56;101345.0;;;21.64;78.47
33913;BME280;20200;52.084;5.224;2022-08-19T09:07:37;101343.0;;;21.81;78.5
33913;BME280;20200;52.084;5.224;2022-08-19T09:09:35;101344.0;;;21.84;78.06
33913;BME280;20200;52.084;5.224;2022-08-19T09:11:21;101345.0;;;21.86;78.52
33913;BME280;20200;52.084;5.224;2022-08-19T09:13:11;101344.0;;;21.86;76.91
33913;BME280;20200;52.084;5.224;2022-08-19T09:15:04;101356.0;;;22.08;76.47
33913;BME280;20200;52.084;5.224;2022-08-19T09:16:41;101355.0;;;22.04;76.14
33913;BME280;20200;52.084;5.224;2022-08-19T09:19:58;101361.0;;;21.99;76.38
33913;BME280;20200;52.084;5.224;2022-08-19T09:21:35;101357.0;;;21.98;76.89
33913;BME280;20200;52.084;5.224;2022-08-19T09:23:11;101358.0;;;21.97;75.77
33913;BME280;20200;52.084;5.224;2022-08-19T09:26:25;101352.0;;;22.05;74.12
33913;BME280;20200;52.084;5.224;2022-08-19T09:28:03;101353.0;;;22.15;75.12
33913;BME280;20200;52.084;5.224;2022-08-19T09:29:39;101356.0;;;22.2;75.69
33913;BME280;20200;52.084;5.224;2022-08-19T09:31:18;101358.0;;;22.4;74.3
33913;BME280;20200;52.084;5.224;2022-08-19T09:34:37;101355.0;;;22.56;73.67
33913;BME280;20200;52.084;5.224;2022-08-19T09:36:15;101355.0;;;22.78;72.77
33913;BME280;20200;52.084;5.224;2022-08-19T09:37:54;101357.0;;;22.6;73.33
33913;BME280;20200;52.084;5.224;2022-08-19T09:39:31;101355.0;;;22.68;73.42
33913;BME280;20200;52.084;5.224;2022-08-19T09:42:48;101359.0;;;22.53;73.77
33913;BME280;20200;52.084;5.224;2022-08-19T09:44:24;101362.0;;;22.37;73.33
33913;BME280;20200;52.084;5.224;2022-08-19T09:46:01;101361.0;;;22.5;73.97
33913;BME280;20200;52.084;5.224;2022-08-19T09:49:15;101366.0;;;22.52;74.11
33913;BME280;20200;52.084;5.224;2022-08-19T09:50:52;101364.0;;;22.61;73.28
33913;BME280;20200;52.084;5.224;2022-08-19T09:52:28;101365.0;;;22.73;73.39
33913;BME280;20200;52.084;5.224;2022-08-19T09:55:41;101366.0;;;22.78;73.5
33913;BME280;20200;52.084;5.224;2022-08-19T09:57:18;101364.0;;;22.76;73.11
33913;BME280;20200;52.084;5.224;2022-08-19T09:58:54;101362.0;;;22.83;73.38
33913;BME280;20200;52.084;5.224;2022-08-19T10:00:30;101359.0;;;22.86;73.11
33913;BME280;20200;52.084;5.224;2022-08-19T10:03:47;101363.0;;;22.97;73.08
33913;BME280;20200;52.084;5.224;2022-08-19T10:05:58;101359.0;;;22.82;72.72
33913;BME280;20200;52.084;5.224;2022-08-19T10:07:35;101360.0;;;22.87;72.74
33913;BME280;20200;52.084;5.224;2022-08-19T10:09:14;101353.0;;;22.93;73.16
33913;BME280;20200;52.084;5.224;2022-08-19T10:12:28;101350.0;;;22.88;72.66
33913;BME280;20200;52.084;5.224;2022-08-19T10:14:06;101347.0;;;22.96;73.61
33913;BME280;20200;52.084;5.224;2022-08-19T10:15:43;101353.0;;;23.03;72.78
33913;BME280;20200;52.084;5.224;2022-08-19T10:17:20;101351.0;;;22.95;73.24
33913;BME280;20200;52.084;5.224;2022-08-19T10:20:35;101358.0;;;22.79;74.41
33913;BME280;20200;52.084;5.224;2022-08-19T10:22:13;101351.0;;;22.89;74.63
33913;BME280;20200;52.084;5.224;2022-08-19T10:23:52;101349.0;;;22.89;74.77
33913;BME280;20200;52.084;5.224;2022-08-19T10:25:32;101355.0;;;22.62;75.94
33913;BME280;20200;52.084;5.224;2022-08-19T10:28:46;101352.0;;;22.61;76.37
33913;BME280;20200;52.084;5.224;2022-08-19T10:30:23;101347.0;;;22.84;76.44
33913;BME280;20200;52.084;5.224;2022-08-19T10:32:00;101339.0;;;23.22;75.28
33913;BME280;20200;52.084;5.224;2022-08-19T10:35:15;101338.0;;;23.56;75.24
33913;BME280;20200;52.084;5.224;2022-08-19T10:36:52;101340.0;;;23.51;73.95
33913;BME280;20200;52.084;5.224;2022-08-19T10:38:28;101348.0;;;23.64;72.53
33913;BME280;20200;52.084;5.224;2022-08-19T10:41:44;101344.0;;;23.67;71.95
33913;BME280;20200;52.084;5.224;2022-08-19T10:43:20;101344.0;;;23.65;73.39
33913;BME280;20200;52.084;5.224;2022-08-19T10:44:57;101342.0;;;23.77;73.44
33913;BME280;20200;52.084;5.224;2022-08-19T10:46:38;101342.0;;;23.79;72.2
33913;BME280;20200;52.084;5.224;2022-08-19T10:52:47;101338.0;;;24.66;70.41
33913;BME280;20200;52.084;5.224;2022-08-19T10:58:27;101334.0;;;24.87;69.41
33913;BME280;20200;52.084;5.224;2022-08-19T11:00:04;101331.0;;;24.87;69.49
33913;BME280;20200;52.084;5.224;2022-08-19T11:01:42;101337.0;;;24.88;68.47
33913;BME280;20200;52.084;5.224;2022-08-19T11:03:19;101336.0;;;24.73;68.13
33913;BME280;20200;52.084;5.224;2022-08-19T11:06:32;101331.0;;;24.87;67.94
33913;BME280;20200;52.084;5.224;2022-08-19T11:08:11;101333.0;;;24.97;67.98
33913;BME280;20200;52.084;5.224;2022-08-19T11:09:47;101333.0;;;24.7;67.87
33913;BME280;20200;52.084;5.224;2022-08-19T11:13:00;101330.0;;;24.95;68.55
33913;BME280;20200;52.084;5.224;2022-08-19T11:14:36;101331.0;;;25.07;67.97
33913;BME280;20200;52.084;5.224;2022-08-19T11:16:15;101330.0;;;25.15;67.03
33913;BME280;20200;52.084;5.224;2022-08-19T11:17:54;101330.0;;;25.42;66.13
33913;BME280;20200;52.084;5.224;2022-08-19T11:21:12;101324.0;;;25.18;65.81
33913;BME280;20200;52.084;5.224;2022-08-19T11:22:51;101320.0;;;25.29;65.05
33913;BME280;20200;52.084;5.224;2022-08-19T11:24:28;101317.0;;;25.36;65.52
33913;BME280;20200;52.084;5.224;2022-08-19T11:27:42;101312.0;;;25.5;65.41
33913;BME280;20200;52.084;5.224;2022-08-19T11:29:20;101308.0;;;25.48;65.64
33913;BME280;20200;52.084;5.224;2022-08-19T11:30:58;101308.0;;;25.55;65.11